sensor_id;sensor_type;location;lat;lon;timestamp;P1;durP1;ratioP1;P2;durP2;ratioP2
6983;SDS011;3532;51.118;7.210;2022-11-20T00:01:32;14.03;;;11.63;;
6983;SDS011;3532;51.118;7.210;2022-11-20T00:03:58;13.27;;;11.87;;
6983;SDS011;3532;51.118;7.210;2022-11-20T00:06:24;13.67;;;10.90;;
6983;SDS011;3532;51.118;7.210;2022-11-20T00:08:50;12.48;;;11.02;;
6983;SDS011;3532;51.118;7.210;2022-11-20T00:11:17;14.63;;;11.90;;
6983;SDS011;3532;51.118;7.210;2022-11-20T00:13:47;13.90;;;11.18;;
6983;SDS011;3532;51.118;7.210;2022-11-20T00:16:15;14.75;;;10.85;;
6983;SDS011;3532;51.118;7.210;2022-11-20T00:18:42;14.45;;;11.98;;
6983;SDS011;3532;51.118;7.210;2022-11-20T00:21:10;14.93;;;11.80;;
6983;SDS011;3532;51.118;7.210;2022-11-20T00:23:37;12.65;;;10.73;;
6983;SDS011;3532;51.118;7.210;2022-11-20T00:26:03;13.60;;;12.20;;
6983;SDS011;3532;51.118;7.210;2022-11-20T00:28:29;13.20;;;11.80;;
6983;SDS011;3532;51.118;7.210;2022-11-20T00:31:04;14.80;;;12.43;;
6983;SDS011;3532;51.118;7.210;2022-11-20T00:33:31;14.00;;;11.05;;
6983;SDS011;3532;51.118;7.210;2022-11-20T00:36:00;12.87;;;11.50;;
6983;SDS011;3532;51.118;7.210;2022-11-20T00:38:28;14.25;;;12.30;;
6983;SDS011;3532;51.118;7.210;2022-11-20T00:40:55;16.17;;;13.30;;
6983;SDS011;3532;51.118;7.210;2022-11-20T00:43:21;15.73;;;13.43;;
6983;SDS011;3532;51.118;7.210;2022-11-20T00:45:46;15.70;;;11.83;;
6983;SDS011;3532;51.118;7.210;2022-11-20T00:48:12;15.13;;;12.20;;
6983;SDS011;3532;51.118;7.210;2022-11-20T00:50:37;16.23;;;12.10;;
6983;SDS011;3532;51.118;7.210;2022-11-20T00:53:02;13.40;;;11.37;;
6983;SDS011;3532;51.118;7.210;2022-11-20T00:55:28;14.80;;;11.77;;
6983;SDS011;3532;51.118;7.210;2022-11-20T00:57:53;14.90;;;12.30;;
6983;SDS011;3532;51.118;7.210;2022-11-20T01:00:18;17.47;;;12.70;;
6983;SDS011;3532;51.118;7.210;2022-11-20T01:02:43;15.67;;;12.50;;
6983;SDS011;3532;51.118;7.210;2022-11-20T01:05:09;14.57;;;11.77;;
6983;SDS011;3532;51.118;7.210;2022-11-20T01:07:34;15.77;;;13.10;;
6983;SDS011;3532;51.118;7.210;2022-11-20T01:09:59;13.83;;;12.37;;
6983;SDS011;3532;51.118;7.210;2022-11-20T01:12:25;17.03;;;12.57;;
6983;SDS011;3532;51.118;7.210;2022-11-20T01:14:50;14.77;;;11.93;;
6983;SDS011;3532;51.118;7.210;2022-11-20T01:17:15;15.50;;;12.03;;
6983;SDS011;3532;51.118;7.210;2022-11-20T01:19:41;13.17;;;11.77;;
6983;SDS011;3532;51.118;7.210;2022-11-20T01:22:06;13.87;;;11.60;;
6983;SDS011;3532;51.118;7.210;2022-11-20T01:24:31;14.90;;;11.90;;
6983;SDS011;3532;51.118;7.210;2022-11-20T01:26:57;16.07;;;12.00;;
6983;SDS011;3532;51.118;7.210;2022-11-20T01:29:23;15.07;;;12.33;;
6983;SDS011;3532;51.118;7.210;2022-11-20T01:31:49;16.77;;;13.20;;
6983;SDS011;3532;51.118;7.210;2022-11-20T01:34:16;13.43;;;11.13;;
6983;SDS011;3532;51.118;7.210;2022-11-20T01:36:43;14.48;;;12.75;;
6983;SDS011;3532;51.118;7.210;2022-11-20T01:39:16;16.23;;;12.67;;
6983;SDS011;3532;51.118;7.210;2022-11-20T01:41:43;16.65;;;13.02;;
6983;SDS011;3532;51.118;7.210;2022-11-20T01:47:14;15.98;;;12.48;;
6983;SDS011;3532;51.118;7.210;2022-11-20T01:49:45;13.02;;;11.10;;
6983;SDS011;3532;51.118;7.210;2022-11-20T01:54:48;15.90;;;12.90;;
6983;SDS011;3532;51.118;7.210;2022-11-20T01:57:15;12.67;;;11.20;;
6983;SDS011;3532;51.118;7.210;2022-11-20T01:59:44;16.33;;;12.45;;
6983;SDS011;3532;51.118;7.210;2022-11-20T02:02:16;14.05;;;12.55;;
6983;SDS011;3532;51.118;7.210;2022-11-20T02:04:42;13.77;;;11.37;;
6983;SDS011;3532;51.118;7.210;2022-11-20T02:07:07;17.13;;;14.00;;
6983;SDS011;3532;51.118;7.210;2022-11-20T02:09:33;12.03;;;10.27;;
6983;SDS011;3532;51.118;7.210;2022-11-20T02:11:58;12.87;;;11.03;;
6983;SDS011;3532;51.118;7.210;2022-11-20T02:14:24;16.23;;;12.43;;
6983;SDS011;3532;51.118;7.210;2022-11-20T02:16:49;15.70;;;12.10;;
6983;SDS011;3532;51.118;7.210;2022-11-20T02:19:28;15.43;;;12.47;;
6983;SDS011;3532;51.118;7.210;2022-11-20T02:24:31;12.67;;;10.77;;
6983;SDS011;3532;51.118;7.210;2022-11-20T02:27:01;14.00;;;11.70;;
6983;SDS011;3532;51.118;7.210;2022-11-20T02:29:45;16.15;;;12.38;;
6983;SDS011;3532;51.118;7.210;2022-11-20T02:32:21;15.30;;;12.00;;
6983;SDS011;3532;51.118;7.210;2022-11-20T02:34:48;14.43;;;12.67;;
6983;SDS011;3532;51.118;7.210;2022-11-20T02:37:14;14.17;;;11.40;;
6983;SDS011;3532;51.118;7.210;2022-11-20T02:39:39;15.00;;;12.53;;
6983;SDS011;3532;51.118;7.210;2022-11-20T02:42:05;15.43;;;12.77;;
6983;SDS011;3532;51.118;7.210;2022-11-20T02:44:30;14.50;;;12.77;;
6983;SDS011;3532;51.118;7.210;2022-11-20T02:46:56;14.33;;;12.03;;
6983;SDS011;3532;51.118;7.210;2022-11-20T02:49:22;13.93;;;12.43;;
6983;SDS011;3532;51.118;7.210;2022-11-20T02:51:48;15.30;;;12.30;;
6983;SDS011;3532;51.118;7.210;2022-11-20T02:54:13;17.90;;;12.47;;
6983;SDS011;3532;51.118;7.210;2022-11-20T02:56:39;15.37;;;12.27;;
6983;SDS011;3532;51.118;7.210;2022-11-20T02:59:04;14.53;;;12.50;;
6983;SDS011;3532;51.118;7.210;2022-11-20T03:01:29;13.70;;;11.70;;
6983;SDS011;3532;51.118;7.210;2022-11-20T03:03:55;15.10;;;12.33;;
6983;SDS011;3532;51.118;7.210;2022-11-20T03:06:21;17.53;;;13.80;;
6983;SDS011;3532;51.118;7.210;2022-11-20T03:08:46;14.40;;;11.90;;
6983;SDS011;3532;51.118;7.210;2022-11-20T03:11:11;16.87;;;13.90;;
6983;SDS011;3532;51.118;7.210;2022-11-20T03:13:37;16.93;;;12.80;;
6983;SDS011;3532;51.118;7.210;2022-11-20T03:16:05;15.70;;;13.87;;
6983;SDS011;3532;51.118;7.210;2022-11-20T03:18:34;18.88;;;13.75;;
6983;SDS011;3532;51.118;7.210;2022-11-20T03:20:59;17.67;;;13.73;;
6983;SDS011;3532;51.118;7.210;2022-11-20T03:23:25;16.33;;;14.17;;
6983;SDS011;3532;51.118;7.210;2022-11-20T03:25:50;16.73;;;13.43;;
6983;SDS011;3532;51.118;7.210;2022-11-20T03:28:16;15.90;;;12.03;;
6983;SDS011;3532;51.118;7.210;2022-11-20T03:30:41;17.57;;;13.93;;
6983;SDS011;3532;51.118;7.210;2022-11-20T03:33:06;16.27;;;13.40;;
6983;SDS011;3532;51.118;7.210;2022-11-20T03:35:31;14.50;;;12.93;;
6983;SDS011;3532;51.118;7.210;2022-11-20T03:37:57;16.67;;;12.73;;
6983;SDS011;3532;51.118;7.210;2022-11-20T03:40:23;15.23;;;13.03;;
6983;SDS011;3532;51.118;7.210;2022-11-20T03:42:48;14.83;;;12.53;;
6983;SDS011;3532;51.118;7.210;2022-11-20T03:45:14;14.47;;;12.37;;
6983;SDS011;3532;51.118;7.210;2022-11-20T03:47:40;16.02;;;13.27;;
6983;SDS011;3532;51.118;7.210;2022-11-20T03:50:06;15.57;;;12.37;;
6983;SDS011;3532;51.118;7.210;2022-11-20T03:52:31;14.37;;;12.83;;
6983;SDS011;3532;51.118;7.210;2022-11-20T03:54:57;13.80;;;12.23;;
6983;SDS011;3532;51.118;7.210;2022-11-20T03:57:22;17.63;;;12.47;;
6983;SDS011;3532;51.118;7.210;2022-11-20T03:59:47;15.03;;;12.50;;
6983;SDS011;3532;51.118;7.210;2022-11-20T04:02:13;14.73;;;11.93;;
6983;SDS011;3532;51.118;7.210;2022-11-20T04:04:38;16.40;;;12.43;;
6983;SDS011;3532;51.118;7.210;2022-11-20T04:07:03;14.73;;;11.73;;
6983;SDS011;3532;51.118;7.210;2022-11-20T04:09:28;12.87;;;11.50;;
6983;SDS011;3532;51.118;7.210;2022-11-20T04:11:54;15.07;;;11.93;;
6983;SDS011;3532;51.118;7.210;2022-11-20T04:14:19;14.07;;;12.33;;
6983;SDS011;3532;51.118;7.210;2022-11-20T04:16:45;13.17;;;11.87;;
6983;SDS011;3532;51.118;7.210;2022-11-20T04:19:11;14.90;;;11.43;;
6983;SDS011;3532;51.118;7.210;2022-11-20T04:21:38;13.50;;;11.57;;
6983;SDS011;3532;51.118;7.210;2022-11-20T04:24:03;13.70;;;11.53;;
6983;SDS011;3532;51.118;7.210;2022-11-20T04:26:29;14.27;;;11.77;;
6983;SDS011;3532;51.118;7.210;2022-11-20T04:28:54;15.27;;;11.53;;
6983;SDS011;3532;51.118;7.210;2022-11-20T04:31:22;13.97;;;12.33;;
6983;SDS011;3532;51.118;7.210;2022-11-20T04:33:48;14.55;;;12.13;;
6983;SDS011;3532;51.118;7.210;2022-11-20T04:36:18;13.27;;;11.40;;
6983;SDS011;3532;51.118;7.210;2022-11-20T04:38:45;13.27;;;11.23;;
6983;SDS011;3532;51.118;7.210;2022-11-20T04:41:17;13.43;;;12.03;;
6983;SDS011;3532;51.118;7.210;2022-11-20T04:43:50;13.70;;;11.65;;
6983;SDS011;3532;51.118;7.210;2022-11-20T04:46:17;13.85;;;11.93;;
6983;SDS011;3532;51.118;7.210;2022-11-20T04:48:43;13.50;;;11.93;;
6983;SDS011;3532;51.118;7.210;2022-11-20T04:51:09;14.53;;;12.43;;
6983;SDS011;3532;51.118;7.210;2022-11-20T04:53:34;13.53;;;11.23;;
6983;SDS011;3532;51.118;7.210;2022-11-20T04:56:00;16.53;;;12.03;;
6983;SDS011;3532;51.118;7.210;2022-11-20T04:58:26;13.60;;;11.20;;
6983;SDS011;3532;51.118;7.210;2022-11-20T05:00:52;12.13;;;10.63;;
6983;SDS011;3532;51.118;7.210;2022-11-20T05:03:17;13.80;;;12.37;;
6983;SDS011;3532;51.118;7.210;2022-11-20T05:05:42;14.73;;;11.40;;
6983;SDS011;3532;51.118;7.210;2022-11-20T05:08:07;15.53;;;13.07;;
6983;SDS011;3532;51.118;7.210;2022-11-20T05:10:33;12.83;;;11.23;;
6983;SDS011;3532;51.118;7.210;2022-11-20T05:12:58;15.33;;;11.33;;
6983;SDS011;3532;51.118;7.210;2022-11-20T05:15:23;13.07;;;11.20;;
6983;SDS011;3532;51.118;7.210;2022-11-20T05:17:49;15.93;;;12.20;;
6983;SDS011;3532;51.118;7.210;2022-11-20T05:20:15;13.25;;;11.02;;
6983;SDS011;3532;51.118;7.210;2022-11-20T05:22:40;13.03;;;10.67;;
6983;SDS011;3532;51.118;7.210;2022-11-20T05:25:06;13.87;;;11.33;;
6983;SDS011;3532;51.118;7.210;2022-11-20T05:27:31;12.97;;;11.10;;
6983;SDS011;3532;51.118;7.210;2022-11-20T05:29:56;13.47;;;11.57;;
6983;SDS011;3532;51.118;7.210;2022-11-20T05:32:22;14.27;;;11.43;;
6983;SDS011;3532;51.118;7.210;2022-11-20T05:34:50;13.80;;;11.83;;
6983;SDS011;3532;51.118;7.210;2022-11-20T05:37:15;14.30;;;11.67;;
6983;SDS011;3532;51.118;7.210;2022-11-20T05:39:40;14.10;;;11.77;;
6983;SDS011;3532;51.118;7.210;2022-11-20T05:42:06;14.90;;;12.47;;
6983;SDS011;3532;51.118;7.210;2022-11-20T05:44:50;14.63;;;11.70;;
6983;SDS011;3532;51.118;7.210;2022-11-20T05:47:15;13.60;;;12.20;;
6983;SDS011;3532;51.118;7.210;2022-11-20T05:49:40;13.67;;;10.77;;
6983;SDS011;3532;51.118;7.210;2022-11-20T05:52:06;13.00;;;10.87;;
6983;SDS011;3532;51.118;7.210;2022-11-20T05:54:31;16.80;;;12.17;;
6983;SDS011;3532;51.118;7.210;2022-11-20T05:56:56;14.50;;;11.57;;
6983;SDS011;3532;51.118;7.210;2022-11-20T05:59:22;13.37;;;11.97;;
6983;SDS011;3532;51.118;7.210;2022-11-20T06:01:47;15.23;;;12.03;;
6983;SDS011;3532;51.118;7.210;2022-11-20T06:04:12;13.33;;;11.63;;
6983;SDS011;3532;51.118;7.210;2022-11-20T06:06:37;16.73;;;11.83;;
6983;SDS011;3532;51.118;7.210;2022-11-20T06:09:03;14.60;;;12.10;;
6983;SDS011;3532;51.118;7.210;2022-11-20T06:11:28;14.13;;;11.10;;
6983;SDS011;3532;51.118;7.210;2022-11-20T06:13:53;14.33;;;12.13;;
6983;SDS011;3532;51.118;7.210;2022-11-20T06:16:19;13.00;;;11.07;;
6983;SDS011;3532;51.118;7.210;2022-11-20T06:18:45;13.90;;;11.40;;
6983;SDS011;3532;51.118;7.210;2022-11-20T06:21:21;14.07;;;11.40;;
6983;SDS011;3532;51.118;7.210;2022-11-20T06:23:47;12.37;;;10.97;;
6983;SDS011;3532;51.118;7.210;2022-11-20T06:26:14;14.10;;;11.47;;
6983;SDS011;3532;51.118;7.210;2022-11-20T06:28:43;13.20;;;11.73;;
6983;SDS011;3532;51.118;7.210;2022-11-20T06:31:10;13.70;;;11.30;;
6983;SDS011;3532;51.118;7.210;2022-11-20T06:33:36;14.03;;;11.97;;
6983;SDS011;3532;51.118;7.210;2022-11-20T06:36:02;13.77;;;12.20;;
6983;SDS011;3532;51.118;7.210;2022-11-20T06:38:28;12.77;;;10.93;;
6983;SDS011;3532;51.118;7.210;2022-11-20T06:40:53;13.67;;;11.57;;
6983;SDS011;3532;51.118;7.210;2022-11-20T06:43:19;14.27;;;11.63;;
6983;SDS011;3532;51.118;7.210;2022-11-20T06:45:44;14.27;;;11.97;;
6983;SDS011;3532;51.118;7.210;2022-11-20T06:48:10;15.10;;;12.20;;
6983;SDS011;3532;51.118;7.210;2022-11-20T06:50:38;15.97;;;12.13;;
6983;SDS011;3532;51.118;7.210;2022-11-20T06:53:04;14.13;;;11.43;;
6983;SDS011;3532;51.118;7.210;2022-11-20T06:55:29;14.30;;;12.40;;
6983;SDS011;3532;51.118;7.210;2022-11-20T06:57:55;18.20;;;12.95;;
6983;SDS011;3532;51.118;7.210;2022-11-20T07:00:21;14.70;;;11.73;;
6983;SDS011;3532;51.118;7.210;2022-11-20T07:02:46;15.03;;;11.63;;
6983;SDS011;3532;51.118;7.210;2022-11-20T07:05:11;14.53;;;11.80;;
6983;SDS011;3532;51.118;7.210;2022-11-20T07:07:37;13.13;;;10.77;;
6983;SDS011;3532;51.118;7.210;2022-11-20T07:10:02;13.20;;;11.77;;
6983;SDS011;3532;51.118;7.210;2022-11-20T07:12:28;15.10;;;11.70;;
6983;SDS011;3532;51.118;7.210;2022-11-20T07:14:53;14.03;;;12.53;;
6983;SDS011;3532;51.118;7.210;2022-11-20T07:17:18;14.33;;;11.87;;
6983;SDS011;3532;51.118;7.210;2022-11-20T07:19:44;17.47;;;12.80;;
6983;SDS011;3532;51.118;7.210;2022-11-20T07:22:09;15.83;;;11.20;;
6983;SDS011;3532;51.118;7.210;2022-11-20T07:24:34;12.00;;;10.70;;
6983;SDS011;3532;51.118;7.210;2022-11-20T07:26:59;14.03;;;12.20;;
6983;SDS011;3532;51.118;7.210;2022-11-20T07:29:25;14.37;;;11.70;;
6983;SDS011;3532;51.118;7.210;2022-11-20T07:31:50;12.93;;;11.53;;
6983;SDS011;3532;51.118;7.210;2022-11-20T07:34:16;15.50;;;12.10;;
6983;SDS011;3532;51.118;7.210;2022-11-20T07:36:41;14.57;;;11.50;;
6983;SDS011;3532;51.118;7.210;2022-11-20T07:39:06;13.00;;;10.73;;
6983;SDS011;3532;51.118;7.210;2022-11-20T07:41:31;15.60;;;12.67;;
6983;SDS011;3532;51.118;7.210;2022-11-20T07:43:57;13.20;;;11.80;;
6983;SDS011;3532;51.118;7.210;2022-11-20T07:46:22;13.60;;;11.03;;
6983;SDS011;3532;51.118;7.210;2022-11-20T07:48:47;13.20;;;11.17;;
6983;SDS011;3532;51.118;7.210;2022-11-20T07:51:13;17.00;;;12.00;;
6983;SDS011;3532;51.118;7.210;2022-11-20T07:53:38;12.57;;;10.80;;
6983;SDS011;3532;51.118;7.210;2022-11-20T07:56:03;15.27;;;11.97;;
6983;SDS011;3532;51.118;7.210;2022-11-20T07:58:29;15.90;;;12.80;;
6983;SDS011;3532;51.118;7.210;2022-11-20T08:00:55;13.63;;;11.07;;
6983;SDS011;3532;51.118;7.210;2022-11-20T08:03:21;15.33;;;11.80;;
6983;SDS011;3532;51.118;7.210;2022-11-20T08:05:46;14.93;;;11.33;;
6983;SDS011;3532;51.118;7.210;2022-11-20T08:08:11;13.30;;;10.77;;
6983;SDS011;3532;51.118;7.210;2022-11-20T08:10:37;14.10;;;11.83;;
6983;SDS011;3532;51.118;7.210;2022-11-20T08:13:02;14.57;;;12.20;;
6983;SDS011;3532;51.118;7.210;2022-11-20T08:15:49;14.90;;;12.07;;
6983;SDS011;3532;51.118;7.210;2022-11-20T08:18:18;17.08;;;12.95;;
6983;SDS011;3532;51.118;7.210;2022-11-20T08:20:43;13.67;;;11.70;;
6983;SDS011;3532;51.118;7.210;2022-11-20T08:23:09;13.03;;;11.23;;
6983;SDS011;3532;51.118;7.210;2022-11-20T08:25:35;14.17;;;12.07;;
6983;SDS011;3532;51.118;7.210;2022-11-20T08:28:02;13.90;;;11.27;;
6983;SDS011;3532;51.118;7.210;2022-11-20T08:30:31;14.50;;;12.05;;
6983;SDS011;3532;51.118;7.210;2022-11-20T08:33:04;15.77;;;12.80;;
6983;SDS011;3532;51.118;7.210;2022-11-20T08:35:34;16.50;;;13.43;;
6983;SDS011;3532;51.118;7.210;2022-11-20T08:38:01;15.05;;;12.95;;
6983;SDS011;3532;51.118;7.210;2022-11-20T08:40:29;16.00;;;12.53;;
6983;SDS011;3532;51.118;7.210;2022-11-20T08:42:55;18.70;;;15.07;;
6983;SDS011;3532;51.118;7.210;2022-11-20T08:45:20;18.40;;;13.73;;
6983;SDS011;3532;51.118;7.210;2022-11-20T08:47:45;15.40;;;12.67;;
6983;SDS011;3532;51.118;7.210;2022-11-20T08:50:12;16.57;;;13.00;;
6983;SDS011;3532;51.118;7.210;2022-11-20T08:52:38;14.60;;;11.93;;
6983;SDS011;3532;51.118;7.210;2022-11-20T08:55:04;16.27;;;13.93;;
6983;SDS011;3532;51.118;7.210;2022-11-20T08:57:33;19.43;;;15.20;;
6983;SDS011;3532;51.118;7.210;2022-11-20T08:59:59;18.03;;;14.50;;
6983;SDS011;3532;51.118;7.210;2022-11-20T09:02:25;20.33;;;15.67;;
6983;SDS011;3532;51.118;7.210;2022-11-20T09:04:50;18.03;;;14.83;;
6983;SDS011;3532;51.118;7.210;2022-11-20T09:07:16;20.30;;;14.63;;
6983;SDS011;3532;51.118;7.210;2022-11-20T09:09:41;17.20;;;14.77;;
6983;SDS011;3532;51.118;7.210;2022-11-20T09:12:06;20.10;;;15.47;;
6983;SDS011;3532;51.118;7.210;2022-11-20T09:14:31;20.17;;;15.30;;
6983;SDS011;3532;51.118;7.210;2022-11-20T09:16:57;21.57;;;16.10;;
6983;SDS011;3532;51.118;7.210;2022-11-20T09:19:23;19.83;;;15.40;;
6983;SDS011;3532;51.118;7.210;2022-11-20T09:21:49;20.40;;;15.15;;
6983;SDS011;3532;51.118;7.210;2022-11-20T09:24:15;19.90;;;15.47;;
6983;SDS011;3532;51.118;7.210;2022-11-20T09:26:40;19.03;;;14.73;;
6983;SDS011;3532;51.118;7.210;2022-11-20T09:29:05;17.83;;;14.70;;
6983;SDS011;3532;51.118;7.210;2022-11-20T09:31:31;16.07;;;12.97;;
6983;SDS011;3532;51.118;7.210;2022-11-20T09:33:56;15.90;;;14.00;;
6983;SDS011;3532;51.118;7.210;2022-11-20T09:36:21;21.10;;;16.10;;
6983;SDS011;3532;51.118;7.210;2022-11-20T09:38:47;18.77;;;15.30;;
6983;SDS011;3532;51.118;7.210;2022-11-20T09:43:47;17.20;;;14.10;;
6983;SDS011;3532;51.118;7.210;2022-11-20T09:46:34;16.67;;;13.83;;
6983;SDS011;3532;51.118;7.210;2022-11-20T09:51:52;14.43;;;12.50;;
6983;SDS011;3532;51.118;7.210;2022-11-20T09:54:22;17.73;;;12.87;;
6983;SDS011;3532;51.118;7.210;2022-11-20T09:57:02;16.17;;;13.03;;
6983;SDS011;3532;51.118;7.210;2022-11-20T10:04:51;13.60;;;11.10;;
6983;SDS011;3532;51.118;7.210;2022-11-20T10:07:24;13.40;;;10.83;;
6983;SDS011;3532;51.118;7.210;2022-11-20T10:09:55;12.67;;;10.50;;
6983;SDS011;3532;51.118;7.210;2022-11-20T10:12:27;14.23;;;12.17;;
6983;SDS011;3532;51.118;7.210;2022-11-20T10:17:33;10.60;;;9.20;;
6983;SDS011;3532;51.118;7.210;2022-11-20T10:20:19;13.17;;;10.77;;
6983;SDS011;3532;51.118;7.210;2022-11-20T10:23:11;14.00;;;10.70;;
6983;SDS011;3532;51.118;7.210;2022-11-20T10:28:54;12.90;;;10.43;;
6983;SDS011;3532;51.118;7.210;2022-11-20T10:31:39;13.63;;;10.83;;
6983;SDS011;3532;51.118;7.210;2022-11-20T10:34:29;13.90;;;10.07;;
6983;SDS011;3532;51.118;7.210;2022-11-20T10:37:11;11.27;;;10.00;;
6983;SDS011;3532;51.118;7.210;2022-11-20T10:39:41;14.00;;;10.73;;
6983;SDS011;3532;51.118;7.210;2022-11-20T10:42:15;14.63;;;11.07;;
6983;SDS011;3532;51.118;7.210;2022-11-20T10:44:47;10.63;;;9.57;;
6983;SDS011;3532;51.118;7.210;2022-11-20T10:47:26;11.80;;;10.50;;
6983;SDS011;3532;51.118;7.210;2022-11-20T10:49:53;11.53;;;9.90;;
6983;SDS011;3532;51.118;7.210;2022-11-20T10:55:33;12.63;;;10.00;;
6983;SDS011;3532;51.118;7.210;2022-11-20T10:58:10;13.17;;;11.37;;
6983;SDS011;3532;51.118;7.210;2022-11-20T11:00:39;13.00;;;11.17;;
6983;SDS011;3532;51.118;7.210;2022-11-20T11:03:20;13.50;;;10.53;;
6983;SDS011;3532;51.118;7.210;2022-11-20T11:05:54;13.30;;;10.50;;
6983;SDS011;3532;51.118;7.210;2022-11-20T11:08:21;12.93;;;10.60;;
6983;SDS011;3532;51.118;7.210;2022-11-20T11:10:51;14.40;;;11.63;;
6983;SDS011;3532;51.118;7.210;2022-11-20T11:13:22;12.80;;;10.60;;
6983;SDS011;3532;51.118;7.210;2022-11-20T11:15:48;12.60;;;10.47;;
6983;SDS011;3532;51.118;7.210;2022-11-20T11:18:23;12.97;;;10.90;;
6983;SDS011;3532;51.118;7.210;2022-11-20T11:20:52;13.97;;;11.60;;
6983;SDS011;3532;51.118;7.210;2022-11-20T11:25:56;15.67;;;12.57;;
6983;SDS011;3532;51.118;7.210;2022-11-20T11:28:23;17.63;;;12.60;;
6983;SDS011;3532;51.118;7.210;2022-11-20T11:30:51;14.37;;;11.93;;
6983;SDS011;3532;51.118;7.210;2022-11-20T11:33:26;15.50;;;13.13;;
6983;SDS011;3532;51.118;7.210;2022-11-20T11:35:54;17.13;;;14.20;;
6983;SDS011;3532;51.118;7.210;2022-11-20T11:38:32;18.83;;;13.73;;
6983;SDS011;3532;51.118;7.210;2022-11-20T11:41:00;17.70;;;13.30;;
6983;SDS011;3532;51.118;7.210;2022-11-20T11:43:26;15.80;;;12.63;;
6983;SDS011;3532;51.118;7.210;2022-11-20T11:46:29;14.47;;;12.03;;
6983;SDS011;3532;51.118;7.210;2022-11-20T11:48:57;15.20;;;12.90;;
6983;SDS011;3532;51.118;7.210;2022-11-20T11:51:31;17.70;;;13.10;;
6983;SDS011;3532;51.118;7.210;2022-11-20T11:54:00;17.13;;;13.73;;
6983;SDS011;3532;51.118;7.210;2022-11-20T11:56:26;18.90;;;13.63;;
6983;SDS011;3532;51.118;7.210;2022-11-20T11:58:53;15.33;;;12.53;;
6983;SDS011;3532;51.118;7.210;2022-11-20T12:01:29;17.23;;;14.23;;
6983;SDS011;3532;51.118;7.210;2022-11-20T12:06:45;16.10;;;13.17;;
6983;SDS011;3532;51.118;7.210;2022-11-20T12:09:15;17.60;;;13.13;;
6983;SDS011;3532;51.118;7.210;2022-11-20T12:16:35;17.63;;;14.47;;
6983;SDS011;3532;51.118;7.210;2022-11-20T12:19:01;16.70;;;13.47;;
6983;SDS011;3532;51.118;7.210;2022-11-20T12:21:45;19.53;;;14.30;;
6983;SDS011;3532;51.118;7.210;2022-11-20T12:24:26;16.80;;;14.10;;
6983;SDS011;3532;51.118;7.210;2022-11-20T12:30:05;16.73;;;13.77;;
6983;SDS011;3532;51.118;7.210;2022-11-20T12:38:45;17.70;;;14.43;;
6983;SDS011;3532;51.118;7.210;2022-11-20T12:41:33;19.30;;;14.37;;
6983;SDS011;3532;51.118;7.210;2022-11-20T12:56:17;20.10;;;15.60;;
6983;SDS011;3532;51.118;7.210;2022-11-20T13:05:24;18.90;;;15.37;;
6983;SDS011;3532;51.118;7.210;2022-11-20T13:07:56;18.07;;;14.77;;
6983;SDS011;3532;51.118;7.210;2022-11-20T13:18:22;21.30;;;15.20;;
6983;SDS011;3532;51.118;7.210;2022-11-20T13:20:47;21.43;;;16.13;;
6983;SDS011;3532;51.118;7.210;2022-11-20T13:23:35;21.93;;;16.13;;
6983;SDS011;3532;51.118;7.210;2022-11-20T13:26:04;17.97;;;14.00;;
6983;SDS011;3532;51.118;7.210;2022-11-20T13:28:30;18.17;;;16.00;;
6983;SDS011;3532;51.118;7.210;2022-11-20T13:30:57;20.43;;;15.37;;
6983;SDS011;3532;51.118;7.210;2022-11-20T13:33:23;21.40;;;15.87;;
6983;SDS011;3532;51.118;7.210;2022-11-20T13:36:00;19.63;;;15.07;;
6983;SDS011;3532;51.118;7.210;2022-11-20T13:38:26;18.57;;;14.67;;
6983;SDS011;3532;51.118;7.210;2022-11-20T13:43:42;23.27;;;15.83;;
6983;SDS011;3532;51.118;7.210;2022-11-20T13:46:08;25.13;;;17.93;;
6983;SDS011;3532;51.118;7.210;2022-11-20T13:48:38;23.53;;;17.23;;
6983;SDS011;3532;51.118;7.210;2022-11-20T13:59:17;22.43;;;16.77;;
6983;SDS011;3532;51.118;7.210;2022-11-20T14:01:45;24.27;;;17.27;;
6983;SDS011;3532;51.118;7.210;2022-11-20T14:04:14;26.30;;;17.53;;
6983;SDS011;3532;51.118;7.210;2022-11-20T14:06:42;23.47;;;17.70;;
6983;SDS011;3532;51.118;7.210;2022-11-20T14:09:12;24.83;;;17.57;;
6983;SDS011;3532;51.118;7.210;2022-11-20T14:11:49;21.53;;;15.73;;
6983;SDS011;3532;51.118;7.210;2022-11-20T14:14:21;24.70;;;17.97;;
6983;SDS011;3532;51.118;7.210;2022-11-20T14:16:48;25.90;;;17.83;;
6983;SDS011;3532;51.118;7.210;2022-11-20T14:21:46;20.27;;;15.20;;
6983;SDS011;3532;51.118;7.210;2022-11-20T14:24:12;21.40;;;16.83;;
6983;SDS011;3532;51.118;7.210;2022-11-20T14:26:44;25.40;;;15.57;;
6983;SDS011;3532;51.118;7.210;2022-11-20T14:29:43;23.83;;;16.97;;
6983;SDS011;3532;51.118;7.210;2022-11-20T14:32:02;23.03;;;16.50;;
6983;SDS011;3532;51.118;7.210;2022-11-20T14:34:28;21.20;;;15.67;;
6983;SDS011;3532;51.118;7.210;2022-11-20T14:36:57;31.07;;;19.53;;
6983;SDS011;3532;51.118;7.210;2022-11-20T14:39:30;23.27;;;17.57;;
6983;SDS011;3532;51.118;7.210;2022-11-20T14:41:57;20.90;;;15.90;;
6983;SDS011;3532;51.118;7.210;2022-11-20T14:44:40;22.23;;;17.10;;
6983;SDS011;3532;51.118;7.210;2022-11-20T14:47:08;21.83;;;16.00;;
6983;SDS011;3532;51.118;7.210;2022-11-20T14:49:36;21.43;;;16.37;;
6983;SDS011;3532;51.118;7.210;2022-11-20T14:52:23;19.47;;;15.40;;
6983;SDS011;3532;51.118;7.210;2022-11-20T14:54:52;19.60;;;14.50;;
6983;SDS011;3532;51.118;7.210;2022-11-20T14:57:20;16.67;;;14.03;;
6983;SDS011;3532;51.118;7.210;2022-11-20T14:59:47;21.53;;;15.93;;
6983;SDS011;3532;51.118;7.210;2022-11-20T15:02:12;18.67;;;15.33;;
6983;SDS011;3532;51.118;7.210;2022-11-20T15:05:11;16.57;;;14.03;;
6983;SDS011;3532;51.118;7.210;2022-11-20T15:07:31;16.93;;;13.70;;
6983;SDS011;3532;51.118;7.210;2022-11-20T15:10:12;19.43;;;14.37;;
6983;SDS011;3532;51.118;7.210;2022-11-20T15:15:21;19.37;;;13.97;;
6983;SDS011;3532;51.118;7.210;2022-11-20T15:17:57;19.77;;;15.63;;
6983;SDS011;3532;51.118;7.210;2022-11-20T15:20:24;19.13;;;15.37;;
6983;SDS011;3532;51.118;7.210;2022-11-20T15:22:52;16.33;;;12.83;;
6983;SDS011;3532;51.118;7.210;2022-11-20T15:25:17;17.73;;;14.70;;
6983;SDS011;3532;51.118;7.210;2022-11-20T15:27:43;18.73;;;14.83;;
6983;SDS011;3532;51.118;7.210;2022-11-20T15:30:12;17.10;;;13.00;;
6983;SDS011;3532;51.118;7.210;2022-11-20T15:32:40;17.03;;;13.93;;
6983;SDS011;3532;51.118;7.210;2022-11-20T15:35:05;16.83;;;13.60;;
6983;SDS011;3532;51.118;7.210;2022-11-20T15:37:32;18.60;;;15.27;;
6983;SDS011;3532;51.118;7.210;2022-11-20T15:39:57;19.87;;;15.43;;
6983;SDS011;3532;51.118;7.210;2022-11-20T15:42:23;18.43;;;13.83;;
6983;SDS011;3532;51.118;7.210;2022-11-20T15:44:48;21.27;;;15.97;;
6983;SDS011;3532;51.118;7.210;2022-11-20T15:47:13;16.67;;;13.93;;
6983;SDS011;3532;51.118;7.210;2022-11-20T15:49:39;19.77;;;15.53;;
6983;SDS011;3532;51.118;7.210;2022-11-20T15:52:04;18.23;;;14.73;;
6983;SDS011;3532;51.118;7.210;2022-11-20T15:54:29;17.77;;;14.87;;
6983;SDS011;3532;51.118;7.210;2022-11-20T15:56:54;17.87;;;15.17;;
6983;SDS011;3532;51.118;7.210;2022-11-20T15:59:20;19.13;;;14.50;;
6983;SDS011;3532;51.118;7.210;2022-11-20T16:01:45;20.23;;;15.90;;
6983;SDS011;3532;51.118;7.210;2022-11-20T16:04:11;20.23;;;15.77;;
6983;SDS011;3532;51.118;7.210;2022-11-20T16:06:37;18.90;;;15.57;;
6983;SDS011;3532;51.118;7.210;2022-11-20T16:09:02;20.30;;;14.47;;
6983;SDS011;3532;51.118;7.210;2022-11-20T16:11:28;20.20;;;15.07;;
6983;SDS011;3532;51.118;7.210;2022-11-20T16:13:54;20.37;;;15.13;;
6983;SDS011;3532;51.118;7.210;2022-11-20T16:16:38;19.40;;;15.23;;
6983;SDS011;3532;51.118;7.210;2022-11-20T16:19:05;19.87;;;15.93;;
6983;SDS011;3532;51.118;7.210;2022-11-20T16:21:31;21.47;;;14.83;;
6983;SDS011;3532;51.118;7.210;2022-11-20T16:23:57;24.30;;;16.77;;